Hennessey, Oklahoma
Current Conditions -  °F | °C
As of 11:58 AM on Thursday 27 Nov 2014 (Local Time) from KEND Reporting Station
Clear Clear  
Wind Chill: 36°   Ceiling: Unl
Heat Index: 42°   Visibility: 10mi
Dew Point: 20°   Wind: 10mph
Humidity: 42%   Direction: 160°SSE
Pressure: 30.48"   Gusts: NA
Location:  36.11°N, 97.9°W
Report Text: KEND 271758Z AUTO 16009KT 10SM CLR 06/M06 A3048 RMK AO2 SLP332 T00551065 10055 21055 58015 $
Loading
Personal Weather Stations






























Interactive Weather Map New forecast layout! Learn more

10-Day Weather Forecast

Advertisements
Track Severe Weather on mobile